Terminal Aerodrome Forecast
Issued by NWS

Home | Current Version | Previous Version | Text Only | Print | Product List | Glossary On
Versions: 1 2 3 4 5 6 7 8 9 10 11 12 13 14 15 16 17 18 19 20 21 22 23 24 25 26 27 28 29 30
000
FTUS42 KJAX 050924 AAB
TAFVQQ
TAF AMD
KVQQ 050924Z 0509/0606 26004KT P6SM SKC WS020/30035KT
     FM051200 28010G15KT P6SM FEW080
     FM051500 28016G30KT P6SM SKC
     FM052200 29012G21KT P6SM SCT070
     FM060000 30006KT P6SM FEW070=

USA.gov is the U.S. government's official web portal to all federal, state and local government web resources and services.